LDB weather

Governador José Richa Airport
Londrina, Paraná, Brazil

Public forecast

Using degrees Celsius for public forecast. Weather courtesy of forecast.io.

Current aviation weather report (METAR) for Governador José Richa Airport

Retrieved 2019/12/12 18:00 UTC (21 minutes ago):

SBLO 121800Z 10005KT 9999 BKN035 29/23 Q1011

Aviation forecast (TAF) for Governador José Richa Airport

Retrieved 2019/12/12 18:00 UTC (21 minutes ago):

TAF SBLO 121500Z 1218/1306 25007KT 9999 BKN025 TX28/1218Z TN22/1305Z TEMPO 1219/1222 VCSH BKN030 FEW035TCU BECMG 1223/1301 00000KT PROB40 1303/1306 2000 BCFG BR BKN002 RMK PCX